Time;durP1;ratioP1;P1;durP2;ratioP2;P2;SDS_P1;SDS_P2;PMS_P1;PMS_P2;Temp;Humidity;BMP_temperature;BMP_pressure;BME280_temperature;BME280_humidity;BME280_pressure;Samples;Min_cycle;Max_cycle;Signal;HPM_P1;HPM_P2
2022/12/17 13:06:49;;;;;;;69.77;29.13;;;;;;;;;;5023511;28;20262;-77
2022/12/17 13:09:14;;;;;;;70.60;27.40;;;;;;;;;;5028755;28;20688;-77
2022/12/17 13:11:41;;;;;;;71.97;31.27;;;;;;;;;;5026338;28;20293;-77
2022/12/17 13:14:10;;;;;;;69.07;31.70;;;;;;;;;;5030028;28;20197;-77
2022/12/17 13:16:56;;;;;;;68.53;29.40;;;;;;;;;;5030747;28;20267;-77
2022/12/17 13:19:30;;;;;;;67.37;28.03;;;;;;;;;;5027640;28;20643;-77
2022/12/17 13:22:16;;;;;;;75.73;28.93;;;;;;;;;;5026339;28;20600;-77
2022/12/17 13:24:45;;;;;;;66.43;28.23;;;;;;;;;;5018318;28;20182;-77
2022/12/17 13:27:26;;;;;;;63.63;26.73;;;;;;;;;;5030477;28;20182;-77
2022/12/17 13:29:51;;;;;;;59.23;26.93;;;;;;;;;;5025937;28;20174;-77
2022/12/17 13:32:20;;;;;;;64.70;29.07;;;;;;;;;;5028066;28;20221;-77
2022/12/17 13:34:45;;;;;;;69.47;27.17;;;;;;;;;;5027538;28;20174;-78
2022/12/17 13:37:28;;;;;;;61.47;25.57;;;;;;;;;;5025214;28;20332;-77
2022/12/17 13:40:14;;;;;;;63.67;26.73;;;;;;;;;;5023378;28;20180;-77
2022/12/17 13:42:39;;;;;;;67.77;26.53;;;;;;;;;;5014034;28;20264;-77
2022/12/17 13:45:05;;;;;;;67.27;25.63;;;;;;;;;;5032532;28;20178;-77
2022/12/17 13:47:32;;;;;;;63.43;27.93;;;;;;;;;;5030233;28;20174;-77
2022/12/17 13:49:58;;;;;;;68.70;28.10;;;;;;;;;;5027837;28;20308;-77
2022/12/17 13:52:27;;;;;;;65.53;25.53;;;;;;;;;;5029370;28;20244;-77
2022/12/17 13:54:53;;;;;;;66.43;27.63;;;;;;;;;;5027465;28;20214;-77
2022/12/17 13:57:20;;;;;;;66.67;25.83;;;;;;;;;;5028092;28;20719;-77
2022/12/17 13:59:49;;;;;;;68.67;26.13;;;;;;;;;;5030092;28;20197;-77
2022/12/17 14:02:24;;;;;;;62.63;26.97;;;;;;;;;;5025310;28;20217;-77
2022/12/17 14:04:53;;;;;;;64.97;27.13;;;;;;;;;;5029556;28;20213;-77
2022/12/17 14:07:18;;;;;;;62.93;24.97;;;;;;;;;;5030328;28;20570;-77
2022/12/17 14:09:44;;;;;;;57.63;24.13;;;;;;;;;;5027182;28;20185;-77
2022/12/17 14:12:23;;;;;;;62.00;25.80;;;;;;;;;;5030359;28;20252;-77
2022/12/17 14:15:00;;;;;;;60.53;26.67;;;;;;;;;;5031855;28;20202;-78
2022/12/17 14:17:36;;;;;;;62.27;25.37;;;;;;;;;;5027231;28;20189;-77
2022/12/17 14:20:03;;;;;;;60.73;24.73;;;;;;;;;;5034275;28;20177;-77
2022/12/17 14:22:32;;;;;;;63.10;24.80;;;;;;;;;;5033734;28;20287;-77
2022/12/17 14:24:57;;;;;;;62.83;23.83;;;;;;;;;;5042572;28;20234;-77
2022/12/17 14:27:31;;;;;;;60.67;27.10;;;;;;;;;;5036621;28;20269;-78
2022/12/17 14:29:56;;;;;;;56.20;23.63;;;;;;;;;;5032691;28;20184;-77
2022/12/17 14:32:41;;;;;;;57.60;24.33;;;;;;;;;;5033245;28;20767;-76
2022/12/17 14:35:21;;;;;;;67.27;24.77;;;;;;;;;;5033864;28;20189;-77
2022/12/17 14:37:46;;;;;;;56.90;24.47;;;;;;;;;;5052361;28;20212;-76
2022/12/17 14:40:12;;;;;;;64.80;23.97;;;;;;;;;;5034413;28;20174;-77
2022/12/17 14:42:37;;;;;;;63.40;24.90;;;;;;;;;;5033769;28;20182;-76
2022/12/17 14:45:20;;;;;;;67.17;25.93;;;;;;;;;;5035974;28;20197;-76
2022/12/17 14:47:56;;;;;;;68.97;26.37;;;;;;;;;;5034727;28;20220;-76
2022/12/17 14:50:24;;;;;;;55.50;25.17;;;;;;;;;;5033527;28;20695;-76
2022/12/17 14:52:52;;;;;;;64.73;25.17;;;;;;;;;;5031870;28;20257;-76
2022/12/17 14:55:25;;;;;;;66.77;25.37;;;;;;;;;;5029443;28;20711;-76
2022/12/17 14:57:51;;;;;;;73.37;27.00;;;;;;;;;;5037193;28;20264;-76
2022/12/17 15:00:17;;;;;;;73.50;27.07;;;;;;;;;;5036738;28;20261;-77
2022/12/17 15:02:43;;;;;;;58.30;24.07;;;;;;;;;;5034928;28;20261;-76
2022/12/17 15:05:13;;;;;;;63.23;24.93;;;;;;;;;;5037553;28;20182;-76
2022/12/17 15:07:38;;;;;;;68.47;27.23;;;;;;;;;;5030526;28;20196;-79
2022/12/17 15:10:08;;;;;;;73.70;27.67;;;;;;;;;;5037816;28;20189;-77
2022/12/17 15:12:33;;;;;;;78.67;27.90;;;;;;;;;;5032439;28;20706;-76
2022/12/17 15:14:58;;;;;;;70.40;26.90;;;;;;;;;;5036947;28;20187;-76
2022/12/17 15:17:23;;;;;;;74.13;25.90;;;;;;;;;;5036214;28;20222;-77
2022/12/17 15:19:49;;;;;;;60.63;25.23;;;;;;;;;;5036562;28;20257;-76
2022/12/17 15:22:15;;;;;;;65.00;24.03;;;;;;;;;;5031554;28;20560;-76
2022/12/17 15:24:40;;;;;;;73.43;26.57;;;;;;;;;;5042002;28;20178;-76
2022/12/17 15:27:07;;;;;;;75.07;28.80;;;;;;;;;;5034466;28;20194;-76
2022/12/17 15:29:33;;;;;;;64.47;24.70;;;;;;;;;;5031724;28;20269;-76
2022/12/17 15:31:58;;;;;;;76.83;29.80;;;;;;;;;;5046704;22;20244;-70
2022/12/17 15:34:23;;;;;;;59.77;23.90;;;;;;;;;;4997451;28;20190;-69
2022/12/17 15:36:49;;;;;;;75.70;27.67;;;;;;;;;;4993295;28;20785;-70
2022/12/17 15:39:14;;;;;;;68.10;25.97;;;;;;;;;;5008350;28;20403;-69
2022/12/17 15:44:23;;;;;;;75.87;26.77;;;;;;;;;;4992517;28;20279;-69
2022/12/17 15:46:48;;;;;;;71.70;23.97;;;;;;;;;;4995687;28;20262;-70
2022/12/17 15:49:13;;;;;;;69.00;26.20;;;;;;;;;;4994691;28;20180;-69
2022/12/17 15:51:38;;;;;;;66.17;25.20;;;;;;;;;;4991356;28;20199;-69
2022/12/17 15:54:04;;;;;;;63.20;23.03;;;;;;;;;;4990354;28;20687;-69
2022/12/17 15:56:29;;;;;;;57.13;22.67;;;;;;;;;;4987429;28;20198;-69
2022/12/17 15:58:57;;;;;;;55.20;23.93;;;;;;;;;;4994984;28;20188;-70
2022/12/17 16:01:22;;;;;;;58.17;22.40;;;;;;;;;;4994618;28;20580;-70
2022/12/17 16:03:51;;;;;;;58.23;21.83;;;;;;;;;;4992875;28;20190;-71
2022/12/17 16:06:16;;;;;;;69.77;26.60;;;;;;;;;;4990760;28;20191;-70
2022/12/17 16:08:41;;;;;;;58.27;23.10;;;;;;;;;;4993036;28;21756;-70
2022/12/17 16:11:08;;;;;;;66.93;23.80;;;;;;;;;;4991658;28;20191;-71
2022/12/17 16:13:33;;;;;;;70.33;26.87;;;;;;;;;;4993232;28;20392;-70
2022/12/17 16:15:59;;;;;;;69.37;26.27;;;;;;;;;;4991941;28;20175;-70
2022/12/17 16:18:24;;;;;;;66.83;25.03;;;;;;;;;;5005588;28;20180;-70
2022/12/17 16:20:49;;;;;;;66.80;25.50;;;;;;;;;;5006879;28;20172;-70
2022/12/17 16:23:15;;;;;;;63.10;24.90;;;;;;;;;;4994078;28;20200;-71
2022/12/17 16:25:40;;;;;;;74.37;27.03;;;;;;;;;;4991874;28;20183;-71
2022/12/17 16:28:05;;;;;;;64.93;24.47;;;;;;;;;;4992168;28;20575;-70
2022/12/17 16:30:30;;;;;;;59.77;23.77;;;;;;;;;;4993001;28;20183;-71
2022/12/17 16:32:57;;;;;;;60.40;23.30;;;;;;;;;;4993111;28;20316;-70
2022/12/17 16:35:22;;;;;;;65.73;24.77;;;;;;;;;;4992435;28;20180;-70
2022/12/17 16:37:48;;;;;;;71.73;26.30;;;;;;;;;;4991357;28;20579;-70
2022/12/17 16:40:13;;;;;;;65.00;24.27;;;;;;;;;;4994163;28;20195;-70
2022/12/17 16:42:38;;;;;;;65.97;25.83;;;;;;;;;;4993762;28;20195;-71
2022/12/17 16:45:04;;;;;;;67.47;25.20;;;;;;;;;;4993141;28;20187;-70
2022/12/17 16:47:29;;;;;;;63.43;25.30;;;;;;;;;;4991767;28;20299;-70
2022/12/17 16:49:54;;;;;;;72.13;25.33;;;;;;;;;;4994552;28;20176;-70
2022/12/17 16:52:19;;;;;;;68.07;25.50;;;;;;;;;;4990159;28;20204;-70
2022/12/17 16:54:45;;;;;;;67.30;25.53;;;;;;;;;;4998567;28;20176;-70
2022/12/17 16:57:10;;;;;;;71.23;26.80;;;;;;;;;;4991554;28;20553;-70
2022/12/17 16:59:35;;;;;;;61.93;23.37;;;;;;;;;;4993216;28;20183;-70
2022/12/17 17:02:01;;;;;;;72.93;26.97;;;;;;;;;;4991753;28;20203;-70
2022/12/17 17:04:27;;;;;;;64.53;25.10;;;;;;;;;;4996080;28;20206;-70
2022/12/17 17:06:53;;;;;;;73.67;25.77;;;;;;;;;;4994048;28;20207;-70
2022/12/17 17:09:19;;;;;;;61.57;22.67;;;;;;;;;;4994081;28;20180;-70
2022/12/17 17:11:44;;;;;;;62.63;22.53;;;;;;;;;;4994882;28;20685;-70
2022/12/17 17:14:09;;;;;;;55.67;21.80;;;;;;;;;;4997624;28;20662;-70
2022/12/17 17:16:35;;;;;;;61.47;23.10;;;;;;;;;;4993393;28;20286;-69
2022/12/17 17:19:00;;;;;;;65.93;25.37;;;;;;;;;;4988305;28;20180;-70
2022/12/17 17:21:30;;;;;;;67.87;24.23;;;;;;;;;;4992382;28;20238;-70
2022/12/17 17:24:00;;;;;;;61.27;22.30;;;;;;;;;;4991358;28;20187;-70
2022/12/17 17:26:26;;;;;;;67.63;24.30;;;;;;;;;;4991584;28;20183;-69
2022/12/17 17:28:51;;;;;;;69.97;25.90;;;;;;;;;;4990096;28;20230;-72
2022/12/17 17:31:17;;;;;;;64.63;25.00;;;;;;;;;;4990893;28;20195;-71
2022/12/17 17:33:45;;;;;;;74.27;25.93;;;;;;;;;;4992806;28;20299;-70
2022/12/17 17:36:12;;;;;;;69.70;25.00;;;;;;;;;;4990767;28;20283;-70
2022/12/17 17:38:38;;;;;;;70.73;23.50;;;;;;;;;;4992262;28;20271;-70
2022/12/17 17:41:04;;;;;;;68.13;24.57;;;;;;;;;;4989488;28;20658;-70
2022/12/17 17:43:29;;;;;;;58.93;22.10;;;;;;;;;;4991306;28;20237;-70
2022/12/17 17:45:57;;;;;;;62.17;22.13;;;;;;;;;;4990447;28;20171;-70
2022/12/17 17:48:22;;;;;;;73.47;25.13;;;;;;;;;;4990749;28;20176;-70
2022/12/17 17:50:57;;;;;;;66.70;26.13;;;;;;;;;;4989743;28;20175;-70
2022/12/17 17:53:23;;;;;;;59.17;22.17;;;;;;;;;;4989027;28;20199;-70
2022/12/17 17:55:48;;;;;;;68.00;23.30;;;;;;;;;;4987516;28;20548;-70
2022/12/17 17:58:13;;;;;;;65.17;23.10;;;;;;;;;;4996354;28;20199;-70
2022/12/17 18:00:38;;;;;;;64.33;23.57;;;;;;;;;;4993670;28;20199;-70
2022/12/17 18:03:03;;;;;;;75.27;25.53;;;;;;;;;;4991637;28;20203;-70
2022/12/17 18:05:29;;;;;;;80.00;26.03;;;;;;;;;;4988418;28;20187;-70
2022/12/17 18:07:55;;;;;;;72.40;25.77;;;;;;;;;;4990935;28;20209;-70
2022/12/17 18:10:20;;;;;;;69.53;25.97;;;;;;;;;;4991340;28;20187;-70
2022/12/17 18:15:29;;;;;;;67.27;25.03;;;;;;;;;;4990426;28;20238;-70
2022/12/17 18:17:54;;;;;;;70.03;26.23;;;;;;;;;;4995029;28;20191;-69
2022/12/17 18:20:19;;;;;;;65.73;28.10;;;;;;;;;;4993304;28;20225;-69
2022/12/17 18:22:44;;;;;;;68.70;26.43;;;;;;;;;;4990681;28;20685;-70
2022/12/17 18:25:10;;;;;;;63.47;23.20;;;;;;;;;;5005704;28;20664;-69
2022/12/17 18:27:35;;;;;;;63.33;23.67;;;;;;;;;;4991765;28;20182;-72
2022/12/17 18:30:00;;;;;;;69.27;25.30;;;;;;;;;;4993633;28;20187;-69
2022/12/17 18:32:26;;;;;;;69.07;24.47;;;;;;;;;;4992541;28;20262;-72
2022/12/17 18:34:51;;;;;;;68.10;24.90;;;;;;;;;;4994348;28;20176;-72
2022/12/17 18:37:16;;;;;;;67.23;24.83;;;;;;;;;;4989147;28;20742;-72
2022/12/17 18:39:41;;;;;;;60.37;22.50;;;;;;;;;;4990593;28;20180;-69
2022/12/17 18:44:50;;;;;;;61.43;22.13;;;;;;;;;;4990495;28;20182;-70
2022/12/17 18:47:17;;;;;;;67.23;24.23;;;;;;;;;;4990761;28;20183;-70
2022/12/17 18:49:43;;;;;;;60.07;22.77;;;;;;;;;;4988038;28;20184;-69
2022/12/17 18:52:09;;;;;;;66.53;24.60;;;;;;;;;;4991191;28;20211;-70
2022/12/17 18:54:34;;;;;;;66.17;25.07;;;;;;;;;;4989156;28;20552;-70
2022/12/17 18:56:59;;;;;;;71.93;24.83;;;;;;;;;;4991056;28;20685;-70
2022/12/17 18:59:26;;;;;;;69.83;24.43;;;;;;;;;;4990073;28;20271;-70
2022/12/17 19:01:51;;;;;;;68.20;24.70;;;;;;;;;;4982719;28;20219;-69
2022/12/17 19:04:17;;;;;;;69.80;23.83;;;;;;;;;;4991090;28;20179;-70
2022/12/17 19:06:43;;;;;;;64.33;25.67;;;;;;;;;;4985984;28;20176;-69
2022/12/17 19:09:16;;;;;;;59.63;24.20;;;;;;;;;;4994830;28;20202;-69
2022/12/17 19:11:41;;;;;;;69.83;24.07;;;;;;;;;;4993219;28;20263;-69
2022/12/17 19:14:06;;;;;;;68.20;24.67;;;;;;;;;;4999505;28;20612;-70
2022/12/17 19:16:31;;;;;;;59.20;22.60;;;;;;;;;;4994427;28;20207;-70
2022/12/17 19:18:58;;;;;;;62.17;21.90;;;;;;;;;;4996274;28;20709;-70
2022/12/17 19:21:24;;;;;;;67.70;24.03;;;;;;;;;;4995675;28;20261;-69
2022/12/17 19:23:53;;;;;;;67.83;22.67;;;;;;;;;;4997215;28;20174;-69
2022/12/17 19:26:19;;;;;;;63.00;23.93;;;;;;;;;;4996104;28;20705;-70
2022/12/17 19:28:46;;;;;;;58.73;23.10;;;;;;;;;;5002849;28;20266;-72
2022/12/17 19:31:11;;;;;;;63.37;22.67;;;;;;;;;;4992639;28;20653;-71
2022/12/17 19:33:37;;;;;;;63.07;24.70;;;;;;;;;;4984495;28;20195;-69
2022/12/17 19:36:03;;;;;;;59.70;22.03;;;;;;;;;;4990962;28;20664;-69
2022/12/17 19:38:28;;;;;;;62.10;23.87;;;;;;;;;;4997263;28;20212;-69
2022/12/17 19:40:54;;;;;;;62.00;23.70;;;;;;;;;;4989132;28;20245;-69
2022/12/17 19:43:19;;;;;;;60.93;22.97;;;;;;;;;;4994417;28;20620;-69
2022/12/17 19:45:44;;;;;;;61.47;22.50;;;;;;;;;;4996265;28;20179;-69
2022/12/17 19:48:13;;;;;;;59.97;23.23;;;;;;;;;;4984714;28;20179;-69
2022/12/17 19:50:38;;;;;;;75.33;27.77;;;;;;;;;;4987944;28;20218;-69
2022/12/17 19:53:04;;;;;;;74.70;26.53;;;;;;;;;;4991683;28;20324;-70
2022/12/17 19:55:29;;;;;;;71.73;25.53;;;;;;;;;;4992182;28;20539;-69
2022/12/17 19:57:54;;;;;;;70.07;28.03;;;;;;;;;;4990733;28;20350;-69
2022/12/17 20:00:20;;;;;;;71.17;25.70;;;;;;;;;;4992825;28;20179;-69
2022/12/17 20:02:45;;;;;;;63.17;26.67;;;;;;;;;;4989970;28;20216;-70
2022/12/17 20:05:10;;;;;;;70.83;26.20;;;;;;;;;;4994029;28;20183;-70
2022/12/17 20:07:35;;;;;;;78.77;25.97;;;;;;;;;;4992794;28;20183;-70
2022/12/17 20:10:01;;;;;;;69.90;26.60;;;;;;;;;;4993076;28;20699;-69
2022/12/17 20:12:26;;;;;;;71.80;24.90;;;;;;;;;;4991809;28;20290;-69
2022/12/17 20:14:51;;;;;;;66.03;23.40;;;;;;;;;;4993290;28;20183;-70
2022/12/17 20:17:16;;;;;;;71.73;24.53;;;;;;;;;;4990531;28;20616;-70
2022/12/17 20:19:42;;;;;;;66.23;23.07;;;;;;;;;;4993333;28;20181;-70
2022/12/17 20:22:08;;;;;;;67.33;24.53;;;;;;;;;;4988412;28;20638;-70
2022/12/17 20:24:33;;;;;;;59.37;22.83;;;;;;;;;;4992424;28;20180;-70
2022/12/17 20:26:59;;;;;;;64.87;25.73;;;;;;;;;;4990906;28;20218;-70
2022/12/17 20:29:24;;;;;;;65.00;23.33;;;;;;;;;;4993881;28;20191;-70
2022/12/17 20:31:50;;;;;;;67.90;24.60;;;;;;;;;;4991472;28;20697;-70
2022/12/17 20:34:16;;;;;;;55.07;23.90;;;;;;;;;;4991724;28;20191;-70
2022/12/17 20:36:42;;;;;;;64.30;24.47;;;;;;;;;;4996108;28;20207;-70
2022/12/17 20:39:08;;;;;;;69.30;26.43;;;;;;;;;;4992469;28;20549;-69
2022/12/17 20:41:35;;;;;;;63.90;24.83;;;;;;;;;;4990373;28;20199;-70
2022/12/17 20:44:04;;;;;;;72.93;24.10;;;;;;;;;;5006760;28;20198;-70
2022/12/17 20:46:29;;;;;;;73.87;27.97;;;;;;;;;;4989270;28;20179;-70
2022/12/17 20:48:54;;;;;;;71.00;26.83;;;;;;;;;;4990977;28;20190;-70
2022/12/17 20:51:22;;;;;;;63.93;27.77;;;;;;;;;;4990186;28;20222;-70
2022/12/17 20:53:51;;;;;;;74.83;27.07;;;;;;;;;;4991233;28;20263;-70
2022/12/17 20:56:18;;;;;;;72.73;25.77;;;;;;;;;;4990695;28;20230;-70
2022/12/17 20:58:43;;;;;;;75.03;27.53;;;;;;;;;;4987342;28;20184;-70
2022/12/17 21:01:14;;;;;;;71.73;26.03;;;;;;;;;;4992111;28;20207;-70
2022/12/17 21:03:40;;;;;;;67.10;25.20;;;;;;;;;;4991141;28;20176;-70
2022/12/17 21:06:05;;;;;;;80.77;27.33;;;;;;;;;;4993291;28;20561;-70
2022/12/17 21:08:30;;;;;;;73.47;25.47;;;;;;;;;;4991944;28;20203;-70
2022/12/17 21:10:56;;;;;;;65.43;25.50;;;;;;;;;;4991506;28;20172;-71
2022/12/17 21:13:30;;;;;;;64.90;26.07;;;;;;;;;;4994275;28;20206;-70
2022/12/17 21:15:56;;;;;;;67.57;24.57;;;;;;;;;;4989693;28;20182;-70
2022/12/17 21:18:21;;;;;;;82.77;31.07;;;;;;;;;;4996448;28;20325;-69
2022/12/17 21:20:57;;;;;;;75.37;27.83;;;;;;;;;;4989644;28;20262;-70
2022/12/17 21:23:23;;;;;;;74.37;24.83;;;;;;;;;;4990054;28;20214;-71
2022/12/17 21:25:55;;;;;;;82.07;26.53;;;;;;;;;;4987798;28;20175;-70
2022/12/17 21:28:20;;;;;;;80.83;28.93;;;;;;;;;;4990585;28;20188;-70
2022/12/17 21:30:45;;;;;;;78.60;27.57;;;;;;;;;;4995239;28;20270;-70
2022/12/17 21:33:11;;;;;;;73.67;26.37;;;;;;;;;;5028687;22;20726;-78
2022/12/17 21:35:36;;;;;;;66.03;26.63;;;;;;;;;;5029030;28;20179;-77
2022/12/17 21:38:01;;;;;;;78.17;27.13;;;;;;;;;;5030360;28;20198;-77
2022/12/17 21:40:26;;;;;;;70.03;26.60;;;;;;;;;;5029554;28;20182;-77
2022/12/17 21:43:00;;;;;;;70.33;26.00;;;;;;;;;;5029950;28;20202;-77
2022/12/17 21:45:26;;;;;;;62.50;23.83;;;;;;;;;;5028960;28;20227;-77
2022/12/17 21:47:51;;;;;;;67.43;24.33;;;;;;;;;;5029016;28;20726;-77
2022/12/17 21:50:16;;;;;;;69.23;25.90;;;;;;;;;;5030216;28;20190;-77
2022/12/17 21:52:41;;;;;;;71.03;25.40;;;;;;;;;;5029216;28;20671;-77
2022/12/17 21:55:07;;;;;;;70.00;25.43;;;;;;;;;;5027218;28;20189;-77
2022/12/17 21:57:32;;;;;;;66.77;24.50;;;;;;;;;;5029359;28;20690;-77
2022/12/17 21:59:57;;;;;;;79.20;26.77;;;;;;;;;;5030830;28;20162;-77
2022/12/17 22:02:22;;;;;;;72.33;25.20;;;;;;;;;;5028041;28;20221;-77
2022/12/17 22:04:47;;;;;;;72.70;27.20;;;;;;;;;;5029656;28;20640;-77
2022/12/17 22:07:13;;;;;;;76.70;25.50;;;;;;;;;;5028820;28;20233;-77
2022/12/17 22:09:38;;;;;;;74.47;23.90;;;;;;;;;;5028185;28;20182;-77
2022/12/17 22:14:58;;;;;;;69.03;23.60;;;;;;;;;;4994136;28;20192;-77
2022/12/17 22:17:23;;;;;;;62.30;24.33;;;;;;;;;;5025712;28;20687;-77
2022/12/17 22:19:48;;;;;;;69.73;22.83;;;;;;;;;;5028397;28;20228;-77
2022/12/17 22:22:13;;;;;;;72.40;26.03;;;;;;;;;;5027479;28;20194;-77
2022/12/17 22:24:38;;;;;;;67.80;24.00;;;;;;;;;;5025826;28;20178;-77
2022/12/17 22:27:04;;;;;;;65.00;24.00;;;;;;;;;;5033795;28;20183;-77
2022/12/17 22:34:57;;;;;;;63.63;24.23;;;;;;;;;;5030897;28;20283;-77
2022/12/17 22:37:23;;;;;;;68.97;23.30;;;;;;;;;;5037250;28;20193;-77
2022/12/17 22:39:48;;;;;;;65.17;23.70;;;;;;;;;;5030772;28;20622;-77
2022/12/17 22:44:57;;;;;;;65.23;24.67;;;;;;;;;;5037161;28;20265;-77
2022/12/17 22:47:22;;;;;;;68.43;23.97;;;;;;;;;;5031909;28;20272;-77
2022/12/17 22:49:48;;;;;;;61.30;22.17;;;;;;;;;;5032788;28;20178;-77
2022/12/17 22:52:13;;;;;;;68.30;25.63;;;;;;;;;;5032995;28;20201;-77
2022/12/17 22:54:38;;;;;;;55.83;23.60;;;;;;;;;;5032357;28;20218;-77
2022/12/17 22:57:03;;;;;;;63.73;25.00;;;;;;;;;;5031483;28;20332;-77
2022/12/17 22:59:29;;;;;;;64.57;23.43;;;;;;;;;;5032825;28;20184;-76
2022/12/17 23:01:54;;;;;;;60.07;22.00;;;;;;;;;;5032517;28;20221;-77
2022/12/17 23:04:19;;;;;;;56.87;21.17;;;;;;;;;;5025722;28;20179;-76
2022/12/17 23:06:44;;;;;;;68.20;23.63;;;;;;;;;;5038524;28;20170;-76
2022/12/17 23:09:10;;;;;;;67.93;23.90;;;;;;;;;;5032608;28;20205;-77
2022/12/17 23:11:35;;;;;;;70.53;23.03;;;;;;;;;;5036640;28;20256;-77
2022/12/17 23:14:00;;;;;;;61.83;23.90;;;;;;;;;;5030365;28;20578;-77
2022/12/17 23:16:26;;;;;;;59.10;22.60;;;;;;;;;;5030721;28;20202;-77
2022/12/17 23:18:51;;;;;;;61.67;22.80;;;;;;;;;;5030648;28;20178;-77
2022/12/17 23:21:21;;;;;;;70.10;24.50;;;;;;;;;;5033373;28;20596;-77
2022/12/17 23:23:46;;;;;;;67.30;25.13;;;;;;;;;;5029451;28;20195;-77
2022/12/17 23:26:22;;;;;;;69.80;25.33;;;;;;;;;;5027336;28;20178;-77
2022/12/17 23:28:50;;;;;;;64.93;23.40;;;;;;;;;;5028144;28;20222;-77
2022/12/17 23:31:18;;;;;;;59.13;23.63;;;;;;;;;;5025627;28;20537;-77
2022/12/17 23:33:43;;;;;;;64.43;24.00;;;;;;;;;;5025341;28;20584;-77
2022/12/17 23:36:10;;;;;;;56.57;23.50;;;;;;;;;;5028239;28;20333;-77
2022/12/17 23:38:36;;;;;;;55.37;23.57;;;;;;;;;;5032335;28;20569;-77
2022/12/17 23:41:02;;;;;;;52.40;21.73;;;;;;;;;;5031940;28;20178;-77
2022/12/17 23:43:28;;;;;;;56.10;22.90;;;;;;;;;;5029812;28;20268;-77
2022/12/17 23:45:53;;;;;;;57.83;22.10;;;;;;;;;;5032489;28;20648;-77
2022/12/17 23:48:18;;;;;;;61.20;24.57;;;;;;;;;;5031342;28;20192;-77
2022/12/17 23:50:44;;;;;;;61.17;24.33;;;;;;;;;;5031534;28;20539;-77
2022/12/17 23:53:09;;;;;;;65.90;23.83;;;;;;;;;;5029035;28;20198;-77
2022/12/17 23:55:34;;;;;;;53.33;22.10;;;;;;;;;;5044611;28;20233;-77
2022/12/17 23:57:59;;;;;;;59.77;21.53;;;;;;;;;;5032171;28;20198;-77
